Terminal Aerodrome Forecast
Issued by NWS Rapid City, SD

Home | Current Version | Previous Version | Text Only | Print | Product List | Glossary Off
Versions: 1 2 3 4 5 6 7 8 9 10 11 12 13 14 15

810
FTUS43 KUNR 181720
TAFRAP
TAF
KRAP 181720Z 1818/1918 02014KT P6SM SCT050
      TEMPO 1820/1824 P6SM TSRA OVC030CB
     FM190000 03020G30KT P6SM -SHRA OVC020
     FM190500 03016KT 5SM BR OVC010
     FM191400 02020G30KT P6SM SCT030=

USA.gov is the U.S. government's official web portal to all federal, state and local government web resources and services.